sensor_id;sensor_type;location;lat;lon;timestamp;P1;durP1;ratioP1;P2;durP2;ratioP2
22030;SDS011;11179;52.106;21.024;2023-12-22T00:00:37;9.27;;;2.37;;
22030;SDS011;11179;52.106;21.024;2023-12-22T00:03:03;20.30;;;7.90;;
22030;SDS011;11179;52.106;21.024;2023-12-22T00:05:28;14.50;;;5.40;;
22030;SDS011;11179;52.106;21.024;2023-12-22T00:07:54;18.83;;;5.07;;
22030;SDS011;11179;52.106;21.024;2023-12-22T00:10:19;12.90;;;3.83;;
22030;SDS011;11179;52.106;21.024;2023-12-22T00:12:44;14.23;;;5.73;;
22030;SDS011;11179;52.106;21.024;2023-12-22T00:15:10;9.30;;;2.83;;
22030;SDS011;11179;52.106;21.024;2023-12-22T00:17:35;11.23;;;2.63;;
22030;SDS011;11179;52.106;21.024;2023-12-22T00:20:00;22.17;;;2.93;;
22030;SDS011;11179;52.106;21.024;2023-12-22T00:22:28;18.50;;;4.53;;
22030;SDS011;11179;52.106;21.024;2023-12-22T00:24:53;10.10;;;2.77;;
22030;SDS011;11179;52.106;21.024;2023-12-22T00:27:19;14.93;;;5.00;;
22030;SDS011;11179;52.106;21.024;2023-12-22T00:29:44;16.17;;;4.23;;
22030;SDS011;11179;52.106;21.024;2023-12-22T00:32:09;13.33;;;3.37;;
22030;SDS011;11179;52.106;21.024;2023-12-22T00:34:35;10.60;;;3.63;;
22030;SDS011;11179;52.106;21.024;2023-12-22T00:37:01;17.70;;;5.70;;
22030;SDS011;11179;52.106;21.024;2023-12-22T00:39:26;16.10;;;3.93;;
22030;SDS011;11179;52.106;21.024;2023-12-22T00:41:51;12.13;;;3.10;;
22030;SDS011;11179;52.106;21.024;2023-12-22T00:44:17;11.70;;;2.63;;
22030;SDS011;11179;52.106;21.024;2023-12-22T00:46:42;10.93;;;4.07;;
22030;SDS011;11179;52.106;21.024;2023-12-22T00:49:07;9.47;;;2.90;;
22030;SDS011;11179;52.106;21.024;2023-12-22T00:51:33;24.27;;;3.77;;
22030;SDS011;11179;52.106;21.024;2023-12-22T00:53:59;13.77;;;3.70;;
22030;SDS011;11179;52.106;21.024;2023-12-22T00:56:24;27.83;;;3.07;;
22030;SDS011;11179;52.106;21.024;2023-12-22T00:58:50;17.10;;;3.70;;
22030;SDS011;11179;52.106;21.024;2023-12-22T01:01:15;9.13;;;3.03;;
22030;SDS011;11179;52.106;21.024;2023-12-22T01:03:40;8.97;;;3.13;;
22030;SDS011;11179;52.106;21.024;2023-12-22T01:06:05;9.47;;;2.83;;
22030;SDS011;11179;52.106;21.024;2023-12-22T01:08:31;11.30;;;2.83;;
22030;SDS011;11179;52.106;21.024;2023-12-22T01:10:56;13.63;;;3.10;;
22030;SDS011;11179;52.106;21.024;2023-12-22T01:13:21;18.73;;;6.40;;
22030;SDS011;11179;52.106;21.024;2023-12-22T01:15:47;28.70;;;7.57;;
22030;SDS011;11179;52.106;21.024;2023-12-22T01:18:12;56.50;;;18.60;;
22030;SDS011;11179;52.106;21.024;2023-12-22T01:20:37;27.23;;;8.90;;
22030;SDS011;11179;52.106;21.024;2023-12-22T01:23:03;26.90;;;7.87;;
22030;SDS011;11179;52.106;21.024;2023-12-22T01:25:28;17.13;;;5.70;;
22030;SDS011;11179;52.106;21.024;2023-12-22T01:27:54;31.97;;;5.60;;
22030;SDS011;11179;52.106;21.024;2023-12-22T01:30:19;12.40;;;4.63;;
22030;SDS011;11179;52.106;21.024;2023-12-22T01:32:44;17.93;;;5.23;;
22030;SDS011;11179;52.106;21.024;2023-12-22T01:35:10;12.07;;;3.50;;
22030;SDS011;11179;52.106;21.024;2023-12-22T01:37:35;21.57;;;5.67;;
22030;SDS011;11179;52.106;21.024;2023-12-22T01:40:02;16.73;;;3.60;;
22030;SDS011;11179;52.106;21.024;2023-12-22T01:42:28;14.93;;;3.70;;
22030;SDS011;11179;52.106;21.024;2023-12-22T01:44:53;12.10;;;2.80;;
22030;SDS011;11179;52.106;21.024;2023-12-22T01:47:19;15.23;;;3.63;;
22030;SDS011;11179;52.106;21.024;2023-12-22T01:49:44;12.53;;;3.20;;
22030;SDS011;11179;52.106;21.024;2023-12-22T01:52:10;11.77;;;3.20;;
22030;SDS011;11179;52.106;21.024;2023-12-22T01:54:35;14.80;;;3.57;;
22030;SDS011;11179;52.106;21.024;2023-12-22T01:57:01;15.67;;;3.93;;
22030;SDS011;11179;52.106;21.024;2023-12-22T01:59:27;18.97;;;3.17;;
22030;SDS011;11179;52.106;21.024;2023-12-22T02:01:55;14.40;;;3.83;;
22030;SDS011;11179;52.106;21.024;2023-12-22T02:04:21;18.27;;;4.60;;
22030;SDS011;11179;52.106;21.024;2023-12-22T02:06:47;18.33;;;3.03;;
22030;SDS011;11179;52.106;21.024;2023-12-22T02:09:15;18.53;;;3.30;;
22030;SDS011;11179;52.106;21.024;2023-12-22T02:11:40;16.60;;;3.30;;
22030;SDS011;11179;52.106;21.024;2023-12-22T02:14:06;13.87;;;3.10;;
22030;SDS011;11179;52.106;21.024;2023-12-22T02:16:33;12.27;;;3.43;;
22030;SDS011;11179;52.106;21.024;2023-12-22T02:19:09;19.43;;;3.23;;
22030;SDS011;11179;52.106;21.024;2023-12-22T02:22:06;11.53;;;2.97;;
22030;SDS011;11179;52.106;21.024;2023-12-22T02:24:32;16.60;;;3.67;;
22030;SDS011;11179;52.106;21.024;2023-12-22T02:33:07;14.20;;;3.50;;
22030;SDS011;11179;52.106;21.024;2023-12-22T02:35:35;11.50;;;3.50;;
22030;SDS011;11179;52.106;21.024;2023-12-22T02:38:01;21.63;;;3.57;;
22030;SDS011;11179;52.106;21.024;2023-12-22T02:40:29;15.15;;;4.32;;
22030;SDS011;11179;52.106;21.024;2023-12-22T02:42:55;14.37;;;3.10;;
22030;SDS011;11179;52.106;21.024;2023-12-22T02:45:21;14.83;;;3.50;;
22030;SDS011;11179;52.106;21.024;2023-12-22T02:47:46;15.70;;;3.97;;
22030;SDS011;11179;52.106;21.024;2023-12-22T02:50:13;26.97;;;4.90;;
22030;SDS011;11179;52.106;21.024;2023-12-22T02:52:39;12.80;;;3.27;;
22030;SDS011;11179;52.106;21.024;2023-12-22T02:55:05;16.73;;;3.90;;
22030;SDS011;11179;52.106;21.024;2023-12-22T02:57:30;20.63;;;4.50;;
22030;SDS011;11179;52.106;21.024;2023-12-22T02:59:56;10.70;;;3.60;;
22030;SDS011;11179;52.106;21.024;2023-12-22T03:02:21;14.20;;;4.00;;
22030;SDS011;11179;52.106;21.024;2023-12-22T03:04:47;18.87;;;4.77;;
22030;SDS011;11179;52.106;21.024;2023-12-22T03:07:12;20.83;;;4.40;;
22030;SDS011;11179;52.106;21.024;2023-12-22T03:09:38;14.80;;;3.60;;
22030;SDS011;11179;52.106;21.024;2023-12-22T03:12:04;22.50;;;5.10;;
22030;SDS011;11179;52.106;21.024;2023-12-22T03:14:30;11.60;;;2.70;;
22030;SDS011;11179;52.106;21.024;2023-12-22T03:16:58;13.60;;;4.30;;
22030;SDS011;11179;52.106;21.024;2023-12-22T03:19:27;10.57;;;3.50;;
22030;SDS011;11179;52.106;21.024;2023-12-22T03:21:52;12.60;;;3.40;;
22030;SDS011;11179;52.106;21.024;2023-12-22T03:24:17;7.60;;;2.50;;
22030;SDS011;11179;52.106;21.024;2023-12-22T03:26:47;14.57;;;4.80;;
22030;SDS011;11179;52.106;21.024;2023-12-22T03:29:16;22.43;;;3.70;;
22030;SDS011;11179;52.106;21.024;2023-12-22T03:31:42;10.63;;;3.57;;
22030;SDS011;11179;52.106;21.024;2023-12-22T03:34:07;15.23;;;3.33;;
22030;SDS011;11179;52.106;21.024;2023-12-22T03:36:32;13.90;;;3.87;;
22030;SDS011;11179;52.106;21.024;2023-12-22T03:38:58;9.70;;;3.10;;
22030;SDS011;11179;52.106;21.024;2023-12-22T03:41:23;17.67;;;3.93;;
22030;SDS011;11179;52.106;21.024;2023-12-22T03:43:49;14.67;;;4.00;;
22030;SDS011;11179;52.106;21.024;2023-12-22T03:46:14;15.50;;;4.17;;
22030;SDS011;11179;52.106;21.024;2023-12-22T03:48:39;13.47;;;3.63;;
22030;SDS011;11179;52.106;21.024;2023-12-22T03:51:05;14.57;;;3.90;;
22030;SDS011;11179;52.106;21.024;2023-12-22T03:53:30;19.57;;;4.97;;
22030;SDS011;11179;52.106;21.024;2023-12-22T03:55:55;18.70;;;3.30;;
22030;SDS011;11179;52.106;21.024;2023-12-22T03:58:20;9.77;;;3.00;;
22030;SDS011;11179;52.106;21.024;2023-12-22T04:00:46;15.27;;;3.60;;
22030;SDS011;11179;52.106;21.024;2023-12-22T04:03:12;16.07;;;2.80;;
22030;SDS011;11179;52.106;21.024;2023-12-22T04:05:37;19.00;;;4.60;;
22030;SDS011;11179;52.106;21.024;2023-12-22T04:08:02;15.43;;;3.97;;
22030;SDS011;11179;52.106;21.024;2023-12-22T04:10:28;20.03;;;4.40;;
22030;SDS011;11179;52.106;21.024;2023-12-22T04:12:53;23.57;;;4.70;;
22030;SDS011;11179;52.106;21.024;2023-12-22T04:15:19;17.33;;;3.83;;
22030;SDS011;11179;52.106;21.024;2023-12-22T04:17:44;20.37;;;3.33;;
22030;SDS011;11179;52.106;21.024;2023-12-22T04:20:10;17.57;;;3.50;;
22030;SDS011;11179;52.106;21.024;2023-12-22T04:22:35;16.80;;;4.20;;
22030;SDS011;11179;52.106;21.024;2023-12-22T04:25:00;13.57;;;3.50;;
22030;SDS011;11179;52.106;21.024;2023-12-22T04:27:26;17.07;;;4.00;;
22030;SDS011;11179;52.106;21.024;2023-12-22T04:29:51;15.27;;;4.00;;
22030;SDS011;11179;52.106;21.024;2023-12-22T04:32:16;25.73;;;3.83;;
22030;SDS011;11179;52.106;21.024;2023-12-22T04:34:41;13.77;;;3.53;;
22030;SDS011;11179;52.106;21.024;2023-12-22T04:37:07;20.40;;;4.37;;
22030;SDS011;11179;52.106;21.024;2023-12-22T04:39:32;20.23;;;3.70;;
22030;SDS011;11179;52.106;21.024;2023-12-22T04:41:57;12.70;;;3.53;;
22030;SDS011;11179;52.106;21.024;2023-12-22T04:44:23;14.30;;;3.57;;
22030;SDS011;11179;52.106;21.024;2023-12-22T04:46:48;16.93;;;3.27;;
22030;SDS011;11179;52.106;21.024;2023-12-22T04:49:14;20.40;;;3.37;;
22030;SDS011;11179;52.106;21.024;2023-12-22T04:51:39;17.67;;;3.40;;
22030;SDS011;11179;52.106;21.024;2023-12-22T04:54:05;22.30;;;3.90;;
22030;SDS011;11179;52.106;21.024;2023-12-22T04:56:30;16.73;;;3.63;;
22030;SDS011;11179;52.106;21.024;2023-12-22T04:58:55;10.90;;;3.63;;
22030;SDS011;11179;52.106;21.024;2023-12-22T05:01:20;14.70;;;2.93;;
22030;SDS011;11179;52.106;21.024;2023-12-22T05:03:46;18.40;;;3.67;;
22030;SDS011;11179;52.106;21.024;2023-12-22T05:06:11;12.40;;;3.20;;
22030;SDS011;11179;52.106;21.024;2023-12-22T05:08:36;15.40;;;3.70;;
22030;SDS011;11179;52.106;21.024;2023-12-22T05:11:02;26.43;;;5.60;;
22030;SDS011;11179;52.106;21.024;2023-12-22T05:13:28;17.90;;;3.97;;
22030;SDS011;11179;52.106;21.024;2023-12-22T05:15:53;13.80;;;3.33;;
22030;SDS011;11179;52.106;21.024;2023-12-22T05:18:19;12.07;;;4.73;;
22030;SDS011;11179;52.106;21.024;2023-12-22T05:20:45;15.00;;;3.23;;
22030;SDS011;11179;52.106;21.024;2023-12-22T05:23:10;18.37;;;4.00;;
22030;SDS011;11179;52.106;21.024;2023-12-22T05:25:36;17.40;;;3.47;;
22030;SDS011;11179;52.106;21.024;2023-12-22T05:28:01;20.83;;;3.50;;
22030;SDS011;11179;52.106;21.024;2023-12-22T05:30:26;21.53;;;4.70;;
22030;SDS011;11179;52.106;21.024;2023-12-22T05:32:51;12.43;;;3.27;;
22030;SDS011;11179;52.106;21.024;2023-12-22T05:35:17;22.97;;;4.83;;
22030;SDS011;11179;52.106;21.024;2023-12-22T05:37:42;18.97;;;3.60;;
22030;SDS011;11179;52.106;21.024;2023-12-22T05:40:08;20.70;;;3.37;;
22030;SDS011;11179;52.106;21.024;2023-12-22T05:42:34;18.67;;;4.23;;
22030;SDS011;11179;52.106;21.024;2023-12-22T05:45:00;10.80;;;2.97;;
22030;SDS011;11179;52.106;21.024;2023-12-22T05:47:25;12.60;;;4.40;;
22030;SDS011;11179;52.106;21.024;2023-12-22T05:49:50;15.73;;;3.87;;
22030;SDS011;11179;52.106;21.024;2023-12-22T05:52:16;17.03;;;3.37;;
22030;SDS011;11179;52.106;21.024;2023-12-22T05:54:41;24.20;;;4.23;;
22030;SDS011;11179;52.106;21.024;2023-12-22T05:57:06;24.83;;;4.27;;
22030;SDS011;11179;52.106;21.024;2023-12-22T05:59:32;29.67;;;4.50;;
22030;SDS011;11179;52.106;21.024;2023-12-22T06:01:59;25.63;;;4.70;;
22030;SDS011;11179;52.106;21.024;2023-12-22T06:04:25;16.27;;;4.00;;
22030;SDS011;11179;52.106;21.024;2023-12-22T06:06:51;17.48;;;3.70;;
22030;SDS011;11179;52.106;21.024;2023-12-22T06:09:16;38.37;;;6.20;;
22030;SDS011;11179;52.106;21.024;2023-12-22T06:11:43;25.07;;;4.80;;
22030;SDS011;11179;52.106;21.024;2023-12-22T06:14:10;20.83;;;4.30;;
22030;SDS011;11179;52.106;21.024;2023-12-22T06:16:36;19.87;;;4.50;;
22030;SDS011;11179;52.106;21.024;2023-12-22T06:19:01;17.00;;;4.10;;
22030;SDS011;11179;52.106;21.024;2023-12-22T06:21:26;17.60;;;5.10;;
22030;SDS011;11179;52.106;21.024;2023-12-22T06:23:51;24.90;;;5.27;;
22030;SDS011;11179;52.106;21.024;2023-12-22T06:26:17;20.57;;;3.73;;
22030;SDS011;11179;52.106;21.024;2023-12-22T06:28:43;21.37;;;3.53;;
22030;SDS011;11179;52.106;21.024;2023-12-22T06:31:09;17.57;;;4.40;;
22030;SDS011;11179;52.106;21.024;2023-12-22T06:33:45;13.70;;;3.50;;
22030;SDS011;11179;52.106;21.024;2023-12-22T06:36:20;20.43;;;4.73;;
22030;SDS011;11179;52.106;21.024;2023-12-22T06:38:53;21.33;;;4.03;;
22030;SDS011;11179;52.106;21.024;2023-12-22T06:41:22;26.60;;;4.57;;
22030;SDS011;11179;52.106;21.024;2023-12-22T06:43:55;14.33;;;4.03;;
22030;SDS011;11179;52.106;21.024;2023-12-22T06:46:22;17.13;;;4.20;;
22030;SDS011;11179;52.106;21.024;2023-12-22T06:48:52;20.70;;;3.30;;
22030;SDS011;11179;52.106;21.024;2023-12-22T06:51:18;15.73;;;4.00;;
22030;SDS011;11179;52.106;21.024;2023-12-22T06:53:48;12.23;;;3.10;;
22030;SDS011;11179;52.106;21.024;2023-12-22T06:56:17;14.70;;;2.70;;
22030;SDS011;11179;52.106;21.024;2023-12-22T06:58:50;12.57;;;3.63;;
22030;SDS011;11179;52.106;21.024;2023-12-22T07:01:17;20.10;;;3.67;;
22030;SDS011;11179;52.106;21.024;2023-12-22T07:03:47;18.37;;;4.10;;
22030;SDS011;11179;52.106;21.024;2023-12-22T07:06:13;21.70;;;4.57;;
22030;SDS011;11179;52.106;21.024;2023-12-22T07:14:05;24.37;;;4.20;;
22030;SDS011;11179;52.106;21.024;2023-12-22T07:16:30;23.37;;;4.30;;
22030;SDS011;11179;52.106;21.024;2023-12-22T07:18:55;19.77;;;3.40;;
22030;SDS011;11179;52.106;21.024;2023-12-22T07:21:21;14.27;;;3.50;;
22030;SDS011;11179;52.106;21.024;2023-12-22T07:23:46;17.60;;;3.40;;
22030;SDS011;11179;52.106;21.024;2023-12-22T07:26:11;14.10;;;3.77;;
22030;SDS011;11179;52.106;21.024;2023-12-22T07:28:37;12.47;;;3.70;;
22030;SDS011;11179;52.106;21.024;2023-12-22T07:31:02;15.87;;;3.43;;
22030;SDS011;11179;52.106;21.024;2023-12-22T07:33:28;17.80;;;3.60;;
22030;SDS011;11179;52.106;21.024;2023-12-22T07:35:53;22.53;;;3.53;;
22030;SDS011;11179;52.106;21.024;2023-12-22T07:38:18;21.73;;;5.57;;
22030;SDS011;11179;52.106;21.024;2023-12-22T07:40:44;14.23;;;3.40;;
22030;SDS011;11179;52.106;21.024;2023-12-22T07:43:09;33.83;;;4.40;;
22030;SDS011;11179;52.106;21.024;2023-12-22T07:45:34;14.97;;;3.80;;
22030;SDS011;11179;52.106;21.024;2023-12-22T07:48:00;11.37;;;3.37;;
22030;SDS011;11179;52.106;21.024;2023-12-22T07:50:25;18.00;;;3.63;;
22030;SDS011;11179;52.106;21.024;2023-12-22T07:52:50;7.43;;;2.60;;
22030;SDS011;11179;52.106;21.024;2023-12-22T07:55:16;13.10;;;3.17;;
22030;SDS011;11179;52.106;21.024;2023-12-22T07:57:41;13.67;;;2.83;;
22030;SDS011;11179;52.106;21.024;2023-12-22T08:00:06;14.77;;;2.70;;
22030;SDS011;11179;52.106;21.024;2023-12-22T08:02:34;21.60;;;3.35;;
22030;SDS011;11179;52.106;21.024;2023-12-22T08:04:59;18.20;;;3.20;;
22030;SDS011;11179;52.106;21.024;2023-12-22T08:07:25;21.27;;;3.00;;
22030;SDS011;11179;52.106;21.024;2023-12-22T08:09:50;7.30;;;2.30;;
22030;SDS011;11179;52.106;21.024;2023-12-22T08:12:16;10.40;;;3.07;;
22030;SDS011;11179;52.106;21.024;2023-12-22T08:14:41;10.40;;;3.27;;
22030;SDS011;11179;52.106;21.024;2023-12-22T08:17:06;16.10;;;3.07;;
22030;SDS011;11179;52.106;21.024;2023-12-22T08:19:32;11.83;;;2.80;;
22030;SDS011;11179;52.106;21.024;2023-12-22T08:21:57;15.10;;;3.90;;
22030;SDS011;11179;52.106;21.024;2023-12-22T08:24:22;15.13;;;2.83;;
22030;SDS011;11179;52.106;21.024;2023-12-22T08:26:51;10.10;;;3.33;;
22030;SDS011;11179;52.106;21.024;2023-12-22T08:29:16;14.07;;;2.70;;
22030;SDS011;11179;52.106;21.024;2023-12-22T08:31:41;7.50;;;2.80;;
22030;SDS011;11179;52.106;21.024;2023-12-22T08:34:08;11.43;;;3.03;;
22030;SDS011;11179;52.106;21.024;2023-12-22T08:36:33;9.83;;;3.30;;
22030;SDS011;11179;52.106;21.024;2023-12-22T08:38:58;14.07;;;2.80;;
22030;SDS011;11179;52.106;21.024;2023-12-22T08:41:24;13.03;;;2.27;;
22030;SDS011;11179;52.106;21.024;2023-12-22T08:43:49;13.53;;;2.20;;
22030;SDS011;11179;52.106;21.024;2023-12-22T08:46:15;19.97;;;3.37;;
22030;SDS011;11179;52.106;21.024;2023-12-22T08:48:40;13.40;;;3.20;;
22030;SDS011;11179;52.106;21.024;2023-12-22T08:51:05;20.30;;;3.67;;
22030;SDS011;11179;52.106;21.024;2023-12-22T08:53:32;13.97;;;3.13;;
22030;SDS011;11179;52.106;21.024;2023-12-22T08:56:01;15.68;;;3.40;;
22030;SDS011;11179;52.106;21.024;2023-12-22T08:58:27;8.43;;;2.63;;
22030;SDS011;11179;52.106;21.024;2023-12-22T09:00:52;11.07;;;3.90;;
22030;SDS011;11179;52.106;21.024;2023-12-22T09:03:17;18.73;;;3.33;;
22030;SDS011;11179;52.106;21.024;2023-12-22T09:05:43;12.20;;;3.40;;
22030;SDS011;11179;52.106;21.024;2023-12-22T09:08:08;21.97;;;3.67;;
22030;SDS011;11179;52.106;21.024;2023-12-22T09:10:33;15.30;;;3.80;;
22030;SDS011;11179;52.106;21.024;2023-12-22T09:12:58;13.93;;;2.60;;
22030;SDS011;11179;52.106;21.024;2023-12-22T09:15:25;15.60;;;3.67;;
22030;SDS011;11179;52.106;21.024;2023-12-22T09:17:51;17.10;;;4.53;;
22030;SDS011;11179;52.106;21.024;2023-12-22T09:20:18;9.83;;;2.50;;
22030;SDS011;11179;52.106;21.024;2023-12-22T09:22:43;13.87;;;3.63;;
22030;SDS011;11179;52.106;21.024;2023-12-22T09:25:08;14.03;;;3.83;;
22030;SDS011;11179;52.106;21.024;2023-12-22T09:27:34;16.73;;;3.07;;
22030;SDS011;11179;52.106;21.024;2023-12-22T09:29:59;12.10;;;2.30;;
22030;SDS011;11179;52.106;21.024;2023-12-22T09:32:24;15.63;;;3.87;;
22030;SDS011;11179;52.106;21.024;2023-12-22T09:34:50;14.73;;;4.00;;
22030;SDS011;11179;52.106;21.024;2023-12-22T09:37:15;18.27;;;3.60;;
22030;SDS011;11179;52.106;21.024;2023-12-22T09:39:40;19.63;;;3.80;;
22030;SDS011;11179;52.106;21.024;2023-12-22T09:42:06;15.13;;;3.40;;
22030;SDS011;11179;52.106;21.024;2023-12-22T09:44:32;17.70;;;3.57;;
22030;SDS011;11179;52.106;21.024;2023-12-22T09:46:58;13.87;;;3.37;;
22030;SDS011;11179;52.106;21.024;2023-12-22T09:49:28;12.10;;;2.87;;
22030;SDS011;11179;52.106;21.024;2023-12-22T09:51:54;9.63;;;3.57;;
22030;SDS011;11179;52.106;21.024;2023-12-22T09:54:21;13.83;;;4.00;;
22030;SDS011;11179;52.106;21.024;2023-12-22T09:56:47;15.33;;;3.67;;
22030;SDS011;11179;52.106;21.024;2023-12-22T09:59:14;13.55;;;3.30;;
22030;SDS011;11179;52.106;21.024;2023-12-22T10:01:41;15.33;;;2.50;;
22030;SDS011;11179;52.106;21.024;2023-12-22T10:04:10;17.10;;;3.47;;
22030;SDS011;11179;52.106;21.024;2023-12-22T10:06:36;20.80;;;3.00;;
22030;SDS011;11179;52.106;21.024;2023-12-22T10:09:02;14.00;;;2.70;;
22030;SDS011;11179;52.106;21.024;2023-12-22T10:11:30;13.73;;;4.10;;
22030;SDS011;11179;52.106;21.024;2023-12-22T10:13:57;10.77;;;2.10;;
22030;SDS011;11179;52.106;21.024;2023-12-22T10:16:25;18.33;;;3.00;;
22030;SDS011;11179;52.106;21.024;2023-12-22T10:18:51;9.03;;;2.90;;
22030;SDS011;11179;52.106;21.024;2023-12-22T10:21:16;15.93;;;3.83;;
22030;SDS011;11179;52.106;21.024;2023-12-22T10:23:42;12.70;;;1.70;;
22030;SDS011;11179;52.106;21.024;2023-12-22T10:26:07;6.70;;;1.60;;
22030;SDS011;11179;52.106;21.024;2023-12-22T10:28:36;4.07;;;1.27;;
22030;SDS011;11179;52.106;21.024;2023-12-22T10:31:01;3.57;;;1.03;;
22030;SDS011;11179;52.106;21.024;2023-12-22T10:33:31;3.70;;;1.20;;
22030;SDS011;11179;52.106;21.024;2023-12-22T10:35:58;5.97;;;1.40;;
22030;SDS011;11179;52.106;21.024;2023-12-22T10:38:24;8.90;;;1.30;;
22030;SDS011;11179;52.106;21.024;2023-12-22T10:40:50;5.83;;;1.27;;
22030;SDS011;11179;52.106;21.024;2023-12-22T10:43:15;4.23;;;1.37;;
22030;SDS011;11179;52.106;21.024;2023-12-22T10:45:41;4.23;;;1.27;;
22030;SDS011;11179;52.106;21.024;2023-12-22T10:48:07;3.63;;;1.00;;
22030;SDS011;11179;52.106;21.024;2023-12-22T10:50:32;4.63;;;1.20;;
22030;SDS011;11179;52.106;21.024;2023-12-22T10:52:57;2.70;;;0.87;;
22030;SDS011;11179;52.106;21.024;2023-12-22T10:55:23;3.93;;;0.83;;
22030;SDS011;11179;52.106;21.024;2023-12-22T10:57:48;3.10;;;1.10;;
22030;SDS011;11179;52.106;21.024;2023-12-22T11:00:15;3.08;;;0.80;;
22030;SDS011;11179;52.106;21.024;2023-12-22T11:02:42;3.55;;;1.17;;
22030;SDS011;11179;52.106;21.024;2023-12-22T11:05:10;5.85;;;1.83;;
22030;SDS011;11179;52.106;21.024;2023-12-22T11:07:37;6.03;;;1.60;;
22030;SDS011;11179;52.106;21.024;2023-12-22T11:10:04;5.35;;;1.73;;
22030;SDS011;11179;52.106;21.024;2023-12-22T11:12:32;6.07;;;1.75;;
22030;SDS011;11179;52.106;21.024;2023-12-22T11:14:59;5.60;;;1.40;;
22030;SDS011;11179;52.106;21.024;2023-12-22T11:17:26;4.68;;;1.45;;
22030;SDS011;11179;52.106;21.024;2023-12-22T11:19:55;7.45;;;1.90;;
22030;SDS011;11179;52.106;21.024;2023-12-22T11:22:22;5.07;;;1.83;;
22030;SDS011;11179;52.106;21.024;2023-12-22T11:24:47;5.80;;;1.97;;
22030;SDS011;11179;52.106;21.024;2023-12-22T11:27:17;7.13;;;2.40;;
22030;SDS011;11179;52.106;21.024;2023-12-22T11:29:45;8.48;;;3.25;;
22030;SDS011;11179;52.106;21.024;2023-12-22T11:32:15;7.53;;;2.13;;
22030;SDS011;11179;52.106;21.024;2023-12-22T11:34:45;11.03;;;2.17;;
22030;SDS011;11179;52.106;21.024;2023-12-22T11:37:11;5.80;;;1.80;;
22030;SDS011;11179;52.106;21.024;2023-12-22T11:39:43;7.40;;;2.10;;
22030;SDS011;11179;52.106;21.024;2023-12-22T11:42:17;7.55;;;2.25;;
22030;SDS011;11179;52.106;21.024;2023-12-22T11:44:44;7.13;;;2.23;;
22030;SDS011;11179;52.106;21.024;2023-12-22T11:47:10;11.67;;;2.50;;
22030;SDS011;11179;52.106;21.024;2023-12-22T11:49:38;8.57;;;2.13;;
22030;SDS011;11179;52.106;21.024;2023-12-22T11:52:13;6.53;;;2.70;;
22030;SDS011;11179;52.106;21.024;2023-12-22T11:54:52;7.00;;;2.05;;
22030;SDS011;11179;52.106;21.024;2023-12-22T11:59:54;11.55;;;3.42;;
22030;SDS011;11179;52.106;21.024;2023-12-22T12:02:20;6.90;;;2.10;;
22030;SDS011;11179;52.106;21.024;2023-12-22T12:04:56;6.60;;;2.40;;
22030;SDS011;11179;52.106;21.024;2023-12-22T12:07:40;6.88;;;2.42;;
22030;SDS011;11179;52.106;21.024;2023-12-22T12:10:09;8.63;;;1.88;;
22030;SDS011;11179;52.106;21.024;2023-12-22T12:12:35;5.17;;;2.10;;
22030;SDS011;11179;52.106;21.024;2023-12-22T12:15:12;9.23;;;2.53;;
22030;SDS011;11179;52.106;21.024;2023-12-22T12:17:42;6.95;;;2.40;;
22030;SDS011;11179;52.106;21.024;2023-12-22T12:20:11;13.23;;;2.70;;
22030;SDS011;11179;52.106;21.024;2023-12-22T12:22:37;10.68;;;2.60;;
22030;SDS011;11179;52.106;21.024;2023-12-22T12:25:07;9.73;;;2.70;;
22030;SDS011;11179;52.106;21.024;2023-12-22T12:27:34;12.27;;;3.00;;
22030;SDS011;11179;52.106;21.024;2023-12-22T12:30:10;6.95;;;2.33;;
22030;SDS011;11179;52.106;21.024;2023-12-22T12:32:37;7.70;;;2.63;;
22030;SDS011;11179;52.106;21.024;2023-12-22T12:35:03;6.47;;;2.50;;
22030;SDS011;11179;52.106;21.024;2023-12-22T12:37:29;13.48;;;2.53;;
22030;SDS011;11179;52.106;21.024;2023-12-22T12:39:55;7.97;;;2.80;;
22030;SDS011;11179;52.106;21.024;2023-12-22T12:42:25;11.10;;;3.45;;
22030;SDS011;11179;52.106;21.024;2023-12-22T12:44:53;9.70;;;2.10;;
22030;SDS011;11179;52.106;21.024;2023-12-22T12:47:19;6.03;;;2.20;;
22030;SDS011;11179;52.106;21.024;2023-12-22T12:49:45;7.17;;;1.93;;
22030;SDS011;11179;52.106;21.024;2023-12-22T12:52:13;9.83;;;2.10;;
22030;SDS011;11179;52.106;21.024;2023-12-22T12:54:39;6.93;;;3.08;;
22030;SDS011;11179;52.106;21.024;2023-12-22T12:57:05;7.80;;;2.70;;
22030;SDS011;11179;52.106;21.024;2023-12-22T12:59:30;11.90;;;2.47;;
22030;SDS011;11179;52.106;21.024;2023-12-22T13:01:55;7.60;;;2.27;;
22030;SDS011;11179;52.106;21.024;2023-12-22T13:04:22;8.25;;;2.60;;
22030;SDS011;11179;52.106;21.024;2023-12-22T13:06:50;13.53;;;4.37;;
22030;SDS011;11179;52.106;21.024;2023-12-22T13:09:16;11.25;;;3.00;;
22030;SDS011;11179;52.106;21.024;2023-12-22T13:11:43;16.13;;;3.67;;
22030;SDS011;11179;52.106;21.024;2023-12-22T13:14:11;11.07;;;2.80;;
22030;SDS011;11179;52.106;21.024;2023-12-22T13:16:37;11.40;;;2.73;;
22030;SDS011;11179;52.106;21.024;2023-12-22T13:19:04;8.98;;;3.05;;
22030;SDS011;11179;52.106;21.024;2023-12-22T13:21:30;8.07;;;3.05;;
22030;SDS011;11179;52.106;21.024;2023-12-22T13:26:38;10.63;;;3.28;;
22030;SDS011;11179;52.106;21.024;2023-12-22T13:29:04;7.60;;;2.50;;
22030;SDS011;11179;52.106;21.024;2023-12-22T13:31:30;10.80;;;4.05;;
22030;SDS011;11179;52.106;21.024;2023-12-22T13:33:57;9.27;;;3.90;;
22030;SDS011;11179;52.106;21.024;2023-12-22T13:36:23;7.45;;;3.33;;
22030;SDS011;11179;52.106;21.024;2023-12-22T13:38:48;17.23;;;4.00;;
22030;SDS011;11179;52.106;21.024;2023-12-22T13:41:17;10.50;;;3.70;;
22030;SDS011;11179;52.106;21.024;2023-12-22T13:43:43;10.98;;;3.05;;
22030;SDS011;11179;52.106;21.024;2023-12-22T13:46:10;15.93;;;3.75;;
22030;SDS011;11179;52.106;21.024;2023-12-22T13:48:37;11.70;;;3.20;;
22030;SDS011;11179;52.106;21.024;2023-12-22T13:51:02;7.23;;;2.90;;
22030;SDS011;11179;52.106;21.024;2023-12-22T13:53:28;16.20;;;4.47;;
22030;SDS011;11179;52.106;21.024;2023-12-22T13:55:57;10.63;;;4.20;;
22030;SDS011;11179;52.106;21.024;2023-12-22T13:58:25;9.70;;;3.73;;
22030;SDS011;11179;52.106;21.024;2023-12-22T14:00:52;13.20;;;3.95;;
22030;SDS011;11179;52.106;21.024;2023-12-22T14:03:18;12.40;;;3.40;;
22030;SDS011;11179;52.106;21.024;2023-12-22T14:05:49;19.23;;;4.82;;
22030;SDS011;11179;52.106;21.024;2023-12-22T14:08:17;10.30;;;3.75;;
22030;SDS011;11179;52.106;21.024;2023-12-22T14:10:46;7.57;;;3.30;;
22030;SDS011;11179;52.106;21.024;2023-12-22T14:13:14;10.05;;;4.10;;
22030;SDS011;11179;52.106;21.024;2023-12-22T14:15:41;8.73;;;3.33;;
22030;SDS011;11179;52.106;21.024;2023-12-22T14:18:08;8.15;;;3.85;;
22030;SDS011;11179;52.106;21.024;2023-12-22T14:20:33;17.20;;;4.50;;
22030;SDS011;11179;52.106;21.024;2023-12-22T14:22:59;11.03;;;5.17;;
22030;SDS011;11179;52.106;21.024;2023-12-22T14:25:24;19.47;;;5.90;;
22030;SDS011;11179;52.106;21.024;2023-12-22T14:27:51;15.35;;;5.35;;
22030;SDS011;11179;52.106;21.024;2023-12-22T14:30:18;19.85;;;5.95;;
22030;SDS011;11179;52.106;21.024;2023-12-22T14:32:44;10.53;;;3.30;;
22030;SDS011;11179;52.106;21.024;2023-12-22T14:35:09;15.73;;;3.80;;